createdAt,value
2023-05-13T00:01:45.325Z,100580.22
2023-05-13T00:06:46.778Z,100574.34
2023-05-13T00:11:48.215Z,100573.06
2023-05-13T00:16:49.782Z,100572.38
2023-05-13T00:21:51.405Z,100567.09
2023-05-13T00:26:52.839Z,100560.31
2023-05-13T00:31:54.281Z,100562.41
2023-05-13T00:36:55.703Z,100564.00
2023-05-13T00:41:57.152Z,100550.97
2023-05-13T00:46:59.302Z,100571.16
2023-05-13T00:52:01.637Z,100567.81
2023-05-13T00:57:03.153Z,100575.94
2023-05-13T01:02:20.563Z,100588.50
2023-05-13T01:07:31.203Z,100606.34
2023-05-13T01:12:36.110Z,100600.06
2023-05-13T01:17:46.543Z,100609.41
2023-05-13T01:22:48.090Z,100610.38
2023-05-13T01:27:50.427Z,100599.66
2023-05-13T01:32:53.020Z,100613.94
2023-05-13T01:37:57.192Z,100622.88
2023-05-13T01:42:58.669Z,100615.41
2023-05-13T01:48:00.274Z,100618.09
2023-05-13T01:53:01.958Z,100613.16
2023-05-13T01:58:03.471Z,100613.88
2023-05-13T02:03:04.950Z,100609.78
2023-05-13T02:08:07.647Z,100609.88
2023-05-13T02:13:09.206Z,100608.13
2023-05-13T02:18:10.822Z,100616.84
2023-05-13T02:23:12.617Z,100612.94
2023-05-13T02:28:14.398Z,100618.34
2023-05-13T02:33:16.021Z,100614.28
2023-05-13T02:38:17.436Z,100613.41
2023-05-13T02:43:19.504Z,100604.44
2023-05-13T02:48:21.000Z,100606.53
2023-05-13T02:53:23.168Z,100611.69
2023-05-13T02:58:24.621Z,100610.41
2023-05-13T03:03:26.332Z,100610.41
2023-05-13T03:08:27.882Z,100615.66
2023-05-13T03:13:29.369Z,100613.53
2023-05-13T03:18:32.763Z,100628.13
2023-05-13T03:23:34.283Z,100627.72
2023-05-13T03:28:35.922Z,100628.81
2023-05-13T03:33:37.515Z,100623.50
2023-05-13T03:38:38.973Z,100632.50
2023-05-13T03:43:40.517Z,100625.16
2023-05-13T03:48:42.288Z,100631.72
2023-05-13T03:53:43.787Z,100641.63
2023-05-13T03:58:45.413Z,100639.03
2023-05-13T04:03:46.873Z,100648.88
2023-05-13T04:08:49.357Z,100644.22
2023-05-13T04:13:51.095Z,100653.72
2023-05-13T04:18:52.533Z,100656.28
2023-05-13T04:23:54.477Z,100660.22
2023-05-13T04:28:55.897Z,100658.63
2023-05-13T04:33:57.328Z,100657.56
2023-05-13T04:38:58.790Z,100657.91
2023-05-13T04:44:00.286Z,100663.50
2023-05-13T04:49:01.702Z,100670.13
2023-05-13T04:54:03.555Z,100666.63
2023-05-13T04:59:05.322Z,100663.72
2023-05-13T05:04:06.818Z,100664.47
2023-05-13T05:09:09.648Z,100664.22
2023-05-13T05:14:11.233Z,100670.38
2023-05-13T05:19:12.767Z,100673.13
2023-05-13T05:24:14.220Z,100677.06
2023-05-13T05:29:15.701Z,100680.22
2023-05-13T05:34:17.430Z,100690.03
2023-05-13T05:39:19.009Z,100686.88
2023-05-13T05:44:20.536Z,100694.38
2023-05-13T05:49:21.961Z,100695.69
2023-05-13T05:54:23.466Z,100703.50
2023-05-13T05:59:24.878Z,100701.91
2023-05-13T06:04:26.298Z,100699.97
2023-05-13T06:09:27.749Z,100700.50
2023-05-13T06:14:29.193Z,100691.78
2023-05-13T06:19:30.618Z,100691.84
2023-05-13T06:24:32.110Z,100694.91
2023-05-13T06:29:33.562Z,100698.00
2023-05-13T06:34:35.072Z,100707.03
2023-05-13T06:39:36.494Z,100700.75
2023-05-13T06:44:39.789Z,100706.34
2023-05-13T06:49:41.361Z,100707.22
2023-05-13T06:54:42.803Z,100704.91
2023-05-13T06:59:44.821Z,100710.22
2023-05-13T07:04:46.781Z,100708.75
2023-05-13T07:09:48.184Z,100710.59
2023-05-13T07:14:49.681Z,100706.56
2023-05-13T07:19:51.580Z,100704.94
2023-05-13T07:24:53.071Z,100694.22
2023-05-13T07:29:54.526Z,100700.31
2023-05-13T07:34:55.946Z,100705.72
2023-05-13T07:39:57.721Z,100705.88
2023-05-13T07:44:59.193Z,100715.97
2023-05-13T07:50:00.723Z,100716.34
2023-05-13T07:55:02.472Z,100717.59
2023-05-13T08:00:04.656Z,100719.09
2023-05-13T08:05:06.781Z,100721.97
2023-05-13T08:10:08.496Z,100716.81
2023-05-13T08:15:12.004Z,100719.09
2023-05-13T08:20:15.136Z,100727.72
2023-05-13T08:25:16.733Z,100724.66
2023-05-13T08:30:18.221Z,100724.28
2023-05-13T08:35:19.921Z,100719.66
2023-05-13T08:40:21.481Z,100719.75
2023-05-13T08:45:27.067Z,100711.41
2023-05-13T08:50:29.456Z,100717.22
2023-05-13T08:55:30.883Z,100713.94
2023-05-13T09:00:34.732Z,100722.19
2023-05-13T09:05:38.843Z,100709.88
2023-05-13T09:10:40.614Z,100716.28
2023-05-13T09:15:45.495Z,100714.59
2023-05-13T09:20:48.090Z,100714.94
2023-05-13T09:25:49.535Z,100713.22
2023-05-13T09:30:54.903Z,100715.41
2023-05-13T09:35:56.414Z,100712.09
2023-05-13T09:40:59.735Z,100714.44
2023-05-13T09:46:03.287Z,100698.31
2023-05-13T09:51:05.023Z,100702.91
2023-05-13T09:56:10.254Z,100700.19
2023-05-13T10:01:11.799Z,100688.59
2023-05-13T10:06:17.967Z,100687.44
2023-05-13T10:11:19.909Z,100689.34
2023-05-13T10:16:23.676Z,100692.13
2023-05-13T10:21:28.489Z,100688.38
2023-05-13T10:26:30.346Z,100694.16
2023-05-13T10:31:32.167Z,100680.19
2023-05-13T10:37:08.576Z,100687.50
2023-05-13T10:42:42.657Z,100679.47
2023-05-13T10:47:44.243Z,100687.50
2023-05-13T10:52:49.024Z,100685.13
2023-05-13T10:58:11.992Z,100681.69
2023-05-13T11:03:14.821Z,100686.09
2023-05-13T11:08:43.088Z,100685.25
2023-05-13T11:13:45.221Z,100682.81
2023-05-13T11:18:46.853Z,100684.78
2023-05-13T11:24:05.637Z,100697.28
2023-05-13T11:29:07.360Z,100702.25
2023-05-13T11:34:09.882Z,100696.59
2023-05-13T11:39:16.712Z,100692.63
2023-05-13T11:44:20.415Z,100680.66
2023-05-13T11:49:44.522Z,100685.44
2023-05-13T11:54:53.447Z,100681.28
2023-05-13T11:59:56.468Z,100674.59
2023-05-13T12:05:04.411Z,100673.69
2023-05-13T12:10:07.195Z,100672.66
2023-05-13T12:15:14.418Z,100676.59
2023-05-13T12:20:18.479Z,100666.19
2023-05-13T12:25:35.631Z,100675.81
2023-05-13T12:30:39.067Z,100677.72
2023-05-13T12:35:40.777Z,100680.63
2023-05-13T12:40:42.223Z,100684.06
2023-05-13T12:45:45.353Z,100678.63
2023-05-13T12:50:47.924Z,100680.84
2023-05-13T12:55:49.374Z,100685.78
2023-05-13T13:00:50.883Z,100692.81
2023-05-13T13:05:52.430Z,100694.22
2023-05-13T13:10:53.943Z,100698.47
2023-05-13T13:15:55.560Z,100695.06
2023-05-13T13:20:57.057Z,100695.22
2023-05-13T13:25:59.276Z,100695.72
2023-05-13T13:31:00.821Z,100706.72
2023-05-13T13:36:02.382Z,100701.56
2023-05-13T13:41:03.820Z,100694.38
2023-05-13T13:46:05.397Z,100700.84
2023-05-13T13:51:06.868Z,100692.63
2023-05-13T13:56:08.512Z,100683.22
2023-05-13T14:01:09.961Z,100686.50
2023-05-13T14:06:11.436Z,100679.22
2023-05-13T14:11:13.815Z,100683.34
2023-05-13T14:16:15.342Z,100683.66
2023-05-13T14:21:17.203Z,100686.75
2023-05-13T14:26:18.662Z,100679.66
2023-05-13T14:31:20.180Z,100681.66
2023-05-13T14:36:22.523Z,100676.56
2023-05-13T14:41:25.501Z,100676.31
2023-05-13T14:46:27.760Z,100671.91
2023-05-13T14:51:29.314Z,100673.19
2023-05-13T14:56:30.830Z,100670.47
2023-05-13T15:01:32.477Z,100675.53
2023-05-13T15:06:34.135Z,100671.53
2023-05-13T15:11:58.208Z,100672.38
2023-05-13T15:17:00.073Z,100662.66
2023-05-13T15:22:01.599Z,100669.34
2023-05-13T15:27:03.711Z,100666.22
2023-05-13T15:32:06.401Z,100675.81
2023-05-13T15:37:07.911Z,100670.00
2023-05-13T15:42:09.373Z,100668.59
2023-05-13T15:47:10.838Z,100664.97
2023-05-13T15:52:12.419Z,100659.28
2023-05-13T15:57:14.956Z,100654.66
2023-05-13T16:02:18.381Z,100651.03
2023-05-13T16:07:19.827Z,100649.66
2023-05-13T16:12:21.556Z,100635.75
2023-05-13T16:17:22.997Z,100632.84
2023-05-13T16:22:37.805Z,100639.63
2023-05-13T16:27:39.922Z,100632.84
2023-05-13T16:32:41.401Z,100638.31
2023-05-13T16:37:42.835Z,100632.47
2023-05-13T16:42:44.317Z,100628.34
2023-05-13T16:47:45.902Z,100627.34
2023-05-13T16:52:47.511Z,100621.84
2023-05-13T16:57:49.023Z,100620.09
2023-05-13T17:02:50.562Z,100616.06
2023-05-13T17:07:52.005Z,100618.38
2023-05-13T17:12:53.439Z,100621.81
2023-05-13T17:17:54.857Z,100626.28
2023-05-13T17:22:56.342Z,100623.34
2023-05-13T17:27:57.820Z,100625.53
2023-05-13T17:32:59.317Z,100629.56
2023-05-13T17:38:00.794Z,100615.03
2023-05-13T17:43:03.708Z,100613.72
2023-05-13T17:48:05.636Z,100618.47
2023-05-13T17:53:07.145Z,100616.72
2023-05-13T17:58:08.573Z,100616.22
2023-05-13T18:03:10.223Z,100617.13
2023-05-13T18:08:11.694Z,100619.47
2023-05-13T18:13:13.256Z,100624.72
2023-05-13T18:18:16.191Z,100628.56
2023-05-13T18:23:18.013Z,100628.06
2023-05-13T18:28:19.433Z,100634.78
2023-05-13T18:33:21.701Z,100636.03
2023-05-13T18:38:23.542Z,100649.91
2023-05-13T18:43:25.206Z,100649.72
2023-05-13T18:48:26.645Z,100653.81
2023-05-13T18:53:28.147Z,100655.03
2023-05-13T18:58:29.577Z,100661.38
2023-05-13T19:03:31.433Z,100661.56
2023-05-13T19:08:32.960Z,100672.63
2023-05-13T19:13:46.120Z,100662.59
2023-05-13T19:18:49.003Z,100667.19
2023-05-13T19:23:50.593Z,100671.81
2023-05-13T19:28:52.017Z,100672.69
2023-05-13T19:33:53.696Z,100677.53
2023-05-13T19:38:55.655Z,100678.69
2023-05-13T19:43:57.135Z,100686.72
2023-05-13T19:48:58.564Z,100689.56
2023-05-13T19:54:00.068Z,100690.13
2023-05-13T19:59:01.496Z,100682.09
2023-05-13T20:04:03.447Z,100674.06
2023-05-13T20:09:05.845Z,100675.63
2023-05-13T20:14:07.652Z,100681.13
2023-05-13T20:19:09.910Z,100672.94
2023-05-13T20:24:11.486Z,100673.63
2023-05-13T20:29:12.905Z,100672.19
2023-05-13T20:34:15.237Z,100670.13
2023-05-13T20:39:16.731Z,100667.53
2023-05-13T20:44:18.214Z,100664.03
2023-05-13T20:49:19.983Z,100669.16
2023-05-13T20:54:21.593Z,100666.84
2023-05-13T20:59:23.058Z,100668.31
2023-05-13T21:04:27.174Z,100669.56
2023-05-13T21:09:28.628Z,100670.50
2023-05-13T21:14:30.037Z,100664.50
2023-05-13T21:19:31.574Z,100680.44
2023-05-13T21:24:33.580Z,100676.94
2023-05-13T21:29:34.992Z,100679.19
2023-05-13T21:34:36.510Z,100677.22
2023-05-13T21:39:37.976Z,100671.13
2023-05-13T21:44:40.891Z,100671.13
2023-05-13T21:49:42.361Z,100674.13
2023-05-13T21:54:43.812Z,100668.19
2023-05-13T21:59:45.305Z,100664.03
2023-05-13T22:04:46.781Z,100668.25
2023-05-13T22:09:50.317Z,100662.47
2023-05-13T22:14:52.705Z,100665.38
2023-05-13T22:19:54.143Z,100668.34
2023-05-13T22:24:55.588Z,100664.28
2023-05-13T22:29:56.997Z,100659.97
2023-05-13T22:34:58.404Z,100659.88
2023-05-13T22:39:59.870Z,100654.34
2023-05-13T22:45:01.287Z,100641.19
2023-05-13T22:50:04.182Z,100637.97
2023-05-13T22:55:06.455Z,100646.72
2023-05-13T23:00:08.802Z,100647.22
2023-05-13T23:05:10.403Z,100654.91
2023-05-13T23:10:11.865Z,100645.28
2023-05-13T23:15:15.866Z,100652.94
2023-05-13T23:20:17.453Z,100646.13
2023-05-13T23:25:20.095Z,100638.72
2023-05-13T23:30:21.951Z,100636.16
2023-05-13T23:35:23.548Z,100635.31
2023-05-13T23:40:25.235Z,100627.66
2023-05-13T23:45:26.871Z,100626.41
2023-05-13T23:50:28.307Z,100630.25
2023-05-13T23:55:29.791Z,100623.81
